sensor_id;sensor_type;location;lat;lon;timestamp;P1;durP1;ratioP1;P2;durP2;ratioP2
11677;SDS011;5895;41.950;24.372;2023-08-31T00:01:30;5.90;;;3.95;;
11677;SDS011;5895;41.950;24.372;2023-08-31T00:03:58;4.47;;;3.60;;
11677;SDS011;5895;41.950;24.372;2023-08-31T00:06:26;7.13;;;3.97;;
11677;SDS011;5895;41.950;24.372;2023-08-31T00:08:53;5.40;;;3.78;;
11677;SDS011;5895;41.950;24.372;2023-08-31T00:11:20;4.22;;;3.80;;
11677;SDS011;5895;41.950;24.372;2023-08-31T00:13:49;4.80;;;3.83;;
11677;SDS011;5895;41.950;24.372;2023-08-31T00:16:17;3.72;;;3.40;;
11677;SDS011;5895;41.950;24.372;2023-08-31T00:18:50;6.40;;;4.25;;
11677;SDS011;5895;41.950;24.372;2023-08-31T00:21:17;5.20;;;3.85;;
11677;SDS011;5895;41.950;24.372;2023-08-31T00:23:45;4.68;;;3.67;;
11677;SDS011;5895;41.950;24.372;2023-08-31T00:26:12;6.53;;;4.07;;
11677;SDS011;5895;41.950;24.372;2023-08-31T00:28:40;4.93;;;3.92;;
11677;SDS011;5895;41.950;24.372;2023-08-31T00:31:09;6.22;;;3.85;;
11677;SDS011;5895;41.950;24.372;2023-08-31T00:33:37;4.45;;;3.47;;
11677;SDS011;5895;41.950;24.372;2023-08-31T00:36:05;5.57;;;3.90;;
11677;SDS011;5895;41.950;24.372;2023-08-31T00:38:33;6.15;;;3.90;;
11677;SDS011;5895;41.950;24.372;2023-08-31T00:41:01;5.82;;;3.95;;
11677;SDS011;5895;41.950;24.372;2023-08-31T00:43:28;5.22;;;3.67;;
11677;SDS011;5895;41.950;24.372;2023-08-31T00:45:56;5.40;;;3.97;;
11677;SDS011;5895;41.950;24.372;2023-08-31T00:48:26;4.78;;;3.53;;
11677;SDS011;5895;41.950;24.372;2023-08-31T00:50:53;5.45;;;3.95;;
11677;SDS011;5895;41.950;24.372;2023-08-31T00:53:21;4.65;;;4.15;;
11677;SDS011;5895;41.950;24.372;2023-08-31T00:55:50;5.88;;;3.75;;
11677;SDS011;5895;41.950;24.372;2023-08-31T00:58:17;4.82;;;3.90;;
11677;SDS011;5895;41.950;24.372;2023-08-31T01:00:46;8.02;;;4.20;;
11677;SDS011;5895;41.950;24.372;2023-08-31T01:03:27;4.22;;;3.75;;
11677;SDS011;5895;41.950;24.372;2023-08-31T01:06:03;5.60;;;4.22;;
11677;SDS011;5895;41.950;24.372;2023-08-31T01:08:39;4.07;;;3.67;;
11677;SDS011;5895;41.950;24.372;2023-08-31T01:11:16;3.85;;;3.47;;
11677;SDS011;5895;41.950;24.372;2023-08-31T01:13:51;4.85;;;4.10;;
11677;SDS011;5895;41.950;24.372;2023-08-31T01:16:26;5.05;;;4.15;;
11677;SDS011;5895;41.950;24.372;2023-08-31T01:18:57;4.13;;;3.72;;
11677;SDS011;5895;41.950;24.372;2023-08-31T01:21:27;6.03;;;3.97;;
11677;SDS011;5895;41.950;24.372;2023-08-31T01:24:01;6.53;;;4.45;;
11677;SDS011;5895;41.950;24.372;2023-08-31T01:26:30;6.18;;;4.30;;
11677;SDS011;5895;41.950;24.372;2023-08-31T01:28:58;5.43;;;3.67;;
11677;SDS011;5895;41.950;24.372;2023-08-31T01:31:25;5.78;;;4.10;;
11677;SDS011;5895;41.950;24.372;2023-08-31T01:37:03;7.32;;;4.13;;
11677;SDS011;5895;41.950;24.372;2023-08-31T01:39:39;6.05;;;3.53;;
11677;SDS011;5895;41.950;24.372;2023-08-31T01:42:11;4.80;;;3.90;;
11677;SDS011;5895;41.950;24.372;2023-08-31T01:44:42;5.70;;;3.63;;
11677;SDS011;5895;41.950;24.372;2023-08-31T01:47:13;7.35;;;3.65;;
11677;SDS011;5895;41.950;24.372;2023-08-31T01:49:44;6.75;;;4.30;;
11677;SDS011;5895;41.950;24.372;2023-08-31T01:52:11;5.30;;;3.45;;
11677;SDS011;5895;41.950;24.372;2023-08-31T01:54:40;5.13;;;3.95;;
11677;SDS011;5895;41.950;24.372;2023-08-31T01:57:08;5.30;;;4.35;;
11677;SDS011;5895;41.950;24.372;2023-08-31T01:59:35;7.53;;;4.20;;
11677;SDS011;5895;41.950;24.372;2023-08-31T02:02:02;5.00;;;4.00;;
11677;SDS011;5895;41.950;24.372;2023-08-31T02:04:30;4.95;;;3.83;;
11677;SDS011;5895;41.950;24.372;2023-08-31T02:06:59;5.68;;;4.15;;
11677;SDS011;5895;41.950;24.372;2023-08-31T02:09:26;4.20;;;3.35;;
11677;SDS011;5895;41.950;24.372;2023-08-31T02:11:55;6.72;;;4.00;;
11677;SDS011;5895;41.950;24.372;2023-08-31T02:14:22;4.88;;;4.18;;
11677;SDS011;5895;41.950;24.372;2023-08-31T02:16:50;6.15;;;4.30;;
11677;SDS011;5895;41.950;24.372;2023-08-31T02:19:17;6.85;;;4.00;;
11677;SDS011;5895;41.950;24.372;2023-08-31T02:21:44;5.18;;;3.92;;
11677;SDS011;5895;41.950;24.372;2023-08-31T02:24:12;4.60;;;3.90;;
11677;SDS011;5895;41.950;24.372;2023-08-31T02:26:39;5.68;;;4.00;;
11677;SDS011;5895;41.950;24.372;2023-08-31T02:29:08;7.43;;;4.20;;
11677;SDS011;5895;41.950;24.372;2023-08-31T02:31:35;5.75;;;3.95;;
11677;SDS011;5895;41.950;24.372;2023-08-31T02:34:03;7.15;;;3.97;;
11677;SDS011;5895;41.950;24.372;2023-08-31T02:36:30;5.30;;;3.72;;
11677;SDS011;5895;41.950;24.372;2023-08-31T02:38:58;5.65;;;4.05;;
11677;SDS011;5895;41.950;24.372;2023-08-31T02:41:25;5.60;;;3.58;;
11677;SDS011;5895;41.950;24.372;2023-08-31T02:43:53;6.90;;;4.18;;
11677;SDS011;5895;41.950;24.372;2023-08-31T02:46:22;5.00;;;3.67;;
11677;SDS011;5895;41.950;24.372;2023-08-31T02:48:49;5.03;;;3.47;;
11677;SDS011;5895;41.950;24.372;2023-08-31T02:51:16;5.80;;;3.40;;
11677;SDS011;5895;41.950;24.372;2023-08-31T02:53:44;4.50;;;3.20;;
11677;SDS011;5895;41.950;24.372;2023-08-31T02:56:11;5.70;;;3.92;;
11677;SDS011;5895;41.950;24.372;2023-08-31T02:58:38;6.35;;;3.55;;
11677;SDS011;5895;41.950;24.372;2023-08-31T03:01:06;4.40;;;3.55;;
11677;SDS011;5895;41.950;24.372;2023-08-31T03:03:38;5.47;;;3.85;;
11677;SDS011;5895;41.950;24.372;2023-08-31T03:06:05;5.60;;;3.78;;
11677;SDS011;5895;41.950;24.372;2023-08-31T03:08:33;8.35;;;4.47;;
11677;SDS011;5895;41.950;24.372;2023-08-31T03:11:01;4.57;;;3.95;;
11677;SDS011;5895;41.950;24.372;2023-08-31T03:13:29;4.80;;;4.00;;
11677;SDS011;5895;41.950;24.372;2023-08-31T03:15:57;7.13;;;4.13;;
11677;SDS011;5895;41.950;24.372;2023-08-31T03:18:24;9.07;;;4.10;;
11677;SDS011;5895;41.950;24.372;2023-08-31T03:20:53;5.70;;;4.13;;
11677;SDS011;5895;41.950;24.372;2023-08-31T03:23:21;8.38;;;4.40;;
11677;SDS011;5895;41.950;24.372;2023-08-31T03:25:48;6.05;;;3.80;;
11677;SDS011;5895;41.950;24.372;2023-08-31T03:28:15;5.90;;;3.97;;
11677;SDS011;5895;41.950;24.372;2023-08-31T03:30:43;5.07;;;4.15;;
11677;SDS011;5895;41.950;24.372;2023-08-31T03:33:11;6.00;;;4.07;;
11677;SDS011;5895;41.950;24.372;2023-08-31T03:35:38;4.97;;;4.15;;
11677;SDS011;5895;41.950;24.372;2023-08-31T03:38:07;5.93;;;3.53;;
11677;SDS011;5895;41.950;24.372;2023-08-31T03:40:34;5.18;;;4.07;;
11677;SDS011;5895;41.950;24.372;2023-08-31T03:43:02;6.18;;;4.32;;
11677;SDS011;5895;41.950;24.372;2023-08-31T03:45:29;5.30;;;4.10;;
11677;SDS011;5895;41.950;24.372;2023-08-31T03:47:56;6.20;;;4.72;;
11677;SDS011;5895;41.950;24.372;2023-08-31T03:50:24;6.80;;;3.92;;
11677;SDS011;5895;41.950;24.372;2023-08-31T03:52:51;7.07;;;4.00;;
11677;SDS011;5895;41.950;24.372;2023-08-31T03:55:20;6.18;;;3.90;;
11677;SDS011;5895;41.950;24.372;2023-08-31T03:57:47;4.82;;;3.58;;
11677;SDS011;5895;41.950;24.372;2023-08-31T04:00:15;4.72;;;3.60;;
11677;SDS011;5895;41.950;24.372;2023-08-31T04:02:42;5.20;;;3.53;;
11677;SDS011;5895;41.950;24.372;2023-08-31T04:05:10;4.85;;;3.55;;
11677;SDS011;5895;41.950;24.372;2023-08-31T04:07:40;5.65;;;4.15;;
11677;SDS011;5895;41.950;24.372;2023-08-31T04:10:08;4.22;;;3.28;;
11677;SDS011;5895;41.950;24.372;2023-08-31T04:12:37;3.75;;;3.40;;
11677;SDS011;5895;41.950;24.372;2023-08-31T04:15:05;6.20;;;3.72;;
11677;SDS011;5895;41.950;24.372;2023-08-31T04:17:33;7.65;;;4.05;;
11677;SDS011;5895;41.950;24.372;2023-08-31T04:20:00;5.07;;;4.00;;
11677;SDS011;5895;41.950;24.372;2023-08-31T04:22:31;8.02;;;4.28;;
11677;SDS011;5895;41.950;24.372;2023-08-31T04:24:58;5.05;;;3.38;;
11677;SDS011;5895;41.950;24.372;2023-08-31T04:27:25;4.75;;;3.90;;
11677;SDS011;5895;41.950;24.372;2023-08-31T04:29:56;5.30;;;3.75;;
11677;SDS011;5895;41.950;24.372;2023-08-31T04:32:23;4.80;;;3.80;;
11677;SDS011;5895;41.950;24.372;2023-08-31T04:34:51;6.60;;;3.88;;
11677;SDS011;5895;41.950;24.372;2023-08-31T04:37:18;6.18;;;4.15;;
11677;SDS011;5895;41.950;24.372;2023-08-31T04:39:46;5.90;;;4.10;;
11677;SDS011;5895;41.950;24.372;2023-08-31T04:42:13;6.00;;;4.28;;
11677;SDS011;5895;41.950;24.372;2023-08-31T04:44:42;7.28;;;4.93;;
11677;SDS011;5895;41.950;24.372;2023-08-31T04:47:10;8.15;;;4.57;;
11677;SDS011;5895;41.950;24.372;2023-08-31T04:49:38;17.05;;;5.80;;
11677;SDS011;5895;41.950;24.372;2023-08-31T04:52:05;6.45;;;4.53;;
11677;SDS011;5895;41.950;24.372;2023-08-31T04:54:32;9.70;;;5.10;;
11677;SDS011;5895;41.950;24.372;2023-08-31T04:57:00;5.78;;;5.00;;
11677;SDS011;5895;41.950;24.372;2023-08-31T04:59:28;5.30;;;4.80;;
11677;SDS011;5895;41.950;24.372;2023-08-31T05:01:56;8.18;;;5.28;;
11677;SDS011;5895;41.950;24.372;2023-08-31T05:04:24;4.75;;;4.35;;
11677;SDS011;5895;41.950;24.372;2023-08-31T05:06:53;6.28;;;4.32;;
11677;SDS011;5895;41.950;24.372;2023-08-31T05:09:21;5.45;;;4.88;;
11677;SDS011;5895;41.950;24.372;2023-08-31T05:11:48;5.25;;;4.53;;
11677;SDS011;5895;41.950;24.372;2023-08-31T05:14:15;5.32;;;4.65;;
11677;SDS011;5895;41.950;24.372;2023-08-31T05:16:43;5.95;;;5.22;;
11677;SDS011;5895;41.950;24.372;2023-08-31T05:19:10;5.15;;;4.55;;
11677;SDS011;5895;41.950;24.372;2023-08-31T05:21:39;8.50;;;5.50;;
11677;SDS011;5895;41.950;24.372;2023-08-31T05:24:06;8.00;;;5.60;;
11677;SDS011;5895;41.950;24.372;2023-08-31T05:26:33;10.00;;;5.43;;
11677;SDS011;5895;41.950;24.372;2023-08-31T05:29:01;6.82;;;4.65;;
11677;SDS011;5895;41.950;24.372;2023-08-31T05:31:29;6.03;;;4.93;;
11677;SDS011;5895;41.950;24.372;2023-08-31T05:33:56;6.55;;;5.40;;
11677;SDS011;5895;41.950;24.372;2023-08-31T05:36:23;7.68;;;5.22;;
11677;SDS011;5895;41.950;24.372;2023-08-31T05:38:52;7.47;;;5.30;;
11677;SDS011;5895;41.950;24.372;2023-08-31T05:41:20;7.90;;;5.65;;
11677;SDS011;5895;41.950;24.372;2023-08-31T05:43:47;9.23;;;5.80;;
11677;SDS011;5895;41.950;24.372;2023-08-31T05:46:14;7.82;;;5.43;;
11677;SDS011;5895;41.950;24.372;2023-08-31T05:48:41;7.38;;;5.00;;
11677;SDS011;5895;41.950;24.372;2023-08-31T05:51:09;6.00;;;4.50;;
11677;SDS011;5895;41.950;24.372;2023-08-31T05:53:36;4.68;;;4.28;;
11677;SDS011;5895;41.950;24.372;2023-08-31T05:56:05;7.03;;;4.95;;
11677;SDS011;5895;41.950;24.372;2023-08-31T05:58:34;6.65;;;4.65;;
11677;SDS011;5895;41.950;24.372;2023-08-31T06:01:02;4.80;;;4.07;;
11677;SDS011;5895;41.950;24.372;2023-08-31T06:03:29;5.15;;;4.35;;
11677;SDS011;5895;41.950;24.372;2023-08-31T06:05:57;5.85;;;4.93;;
11677;SDS011;5895;41.950;24.372;2023-08-31T06:08:25;8.40;;;6.40;;
11677;SDS011;5895;41.950;24.372;2023-08-31T06:10:53;10.77;;;6.47;;
11677;SDS011;5895;41.950;24.372;2023-08-31T06:13:22;9.48;;;6.10;;
11677;SDS011;5895;41.950;24.372;2023-08-31T06:15:49;11.30;;;6.45;;
11677;SDS011;5895;41.950;24.372;2023-08-31T06:18:16;9.10;;;6.63;;
11677;SDS011;5895;41.950;24.372;2023-08-31T06:20:44;5.70;;;5.05;;
11677;SDS011;5895;41.950;24.372;2023-08-31T06:23:11;8.18;;;5.15;;
11677;SDS011;5895;41.950;24.372;2023-08-31T06:25:38;7.45;;;4.93;;
11677;SDS011;5895;41.950;24.372;2023-08-31T06:28:06;7.07;;;4.57;;
11677;SDS011;5895;41.950;24.372;2023-08-31T06:30:38;7.72;;;5.28;;
11677;SDS011;5895;41.950;24.372;2023-08-31T06:33:05;8.25;;;4.95;;
11677;SDS011;5895;41.950;24.372;2023-08-31T06:35:33;7.78;;;5.65;;
11677;SDS011;5895;41.950;24.372;2023-08-31T06:38:00;5.78;;;3.90;;
11677;SDS011;5895;41.950;24.372;2023-08-31T06:40:27;7.47;;;3.58;;
11677;SDS011;5895;41.950;24.372;2023-08-31T06:42:54;4.13;;;3.10;;
11677;SDS011;5895;41.950;24.372;2023-08-31T06:45:22;3.75;;;3.05;;
11677;SDS011;5895;41.950;24.372;2023-08-31T06:47:50;6.10;;;3.50;;
11677;SDS011;5895;41.950;24.372;2023-08-31T06:50:18;5.78;;;3.25;;
11677;SDS011;5895;41.950;24.372;2023-08-31T06:52:45;3.80;;;3.40;;
11677;SDS011;5895;41.950;24.372;2023-08-31T06:55:13;6.97;;;3.13;;
11677;SDS011;5895;41.950;24.372;2023-08-31T06:57:40;7.50;;;3.00;;
11677;SDS011;5895;41.950;24.372;2023-08-31T07:00:09;5.80;;;3.50;;
11677;SDS011;5895;41.950;24.372;2023-08-31T07:02:38;6.53;;;3.40;;
11677;SDS011;5895;41.950;24.372;2023-08-31T07:05:09;5.20;;;3.60;;
11677;SDS011;5895;41.950;24.372;2023-08-31T07:07:37;5.90;;;3.40;;
11677;SDS011;5895;41.950;24.372;2023-08-31T07:10:05;5.38;;;3.20;;
11677;SDS011;5895;41.950;24.372;2023-08-31T07:12:33;5.00;;;2.85;;
11677;SDS011;5895;41.950;24.372;2023-08-31T07:15:00;4.85;;;3.38;;
11677;SDS011;5895;41.950;24.372;2023-08-31T07:17:29;5.22;;;3.35;;
11677;SDS011;5895;41.950;24.372;2023-08-31T07:19:56;6.30;;;3.35;;
11677;SDS011;5895;41.950;24.372;2023-08-31T07:22:25;4.18;;;3.30;;
11677;SDS011;5895;41.950;24.372;2023-08-31T07:24:52;6.18;;;3.30;;
11677;SDS011;5895;41.950;24.372;2023-08-31T07:27:19;3.42;;;2.72;;
11677;SDS011;5895;41.950;24.372;2023-08-31T07:29:46;5.97;;;3.30;;
11677;SDS011;5895;41.950;24.372;2023-08-31T07:32:14;5.85;;;3.30;;
11677;SDS011;5895;41.950;24.372;2023-08-31T07:34:41;5.05;;;3.63;;
11677;SDS011;5895;41.950;24.372;2023-08-31T07:37:08;6.20;;;3.28;;
11677;SDS011;5895;41.950;24.372;2023-08-31T07:39:37;4.45;;;3.17;;
11677;SDS011;5895;41.950;24.372;2023-08-31T07:42:05;4.25;;;3.05;;
11677;SDS011;5895;41.950;24.372;2023-08-31T07:44:32;3.28;;;2.58;;
11677;SDS011;5895;41.950;24.372;2023-08-31T07:47:00;4.97;;;3.33;;
11677;SDS011;5895;41.950;24.372;2023-08-31T07:49:27;5.15;;;2.60;;
11677;SDS011;5895;41.950;24.372;2023-08-31T07:51:55;6.10;;;3.30;;
11677;SDS011;5895;41.950;24.372;2023-08-31T07:54:22;3.55;;;2.88;;
11677;SDS011;5895;41.950;24.372;2023-08-31T07:56:51;5.78;;;3.10;;
11677;SDS011;5895;41.950;24.372;2023-08-31T07:59:19;4.10;;;2.80;;
11677;SDS011;5895;41.950;24.372;2023-08-31T08:01:47;3.65;;;2.80;;
11677;SDS011;5895;41.950;24.372;2023-08-31T08:04:14;5.55;;;2.63;;
11677;SDS011;5895;41.950;24.372;2023-08-31T08:06:44;4.20;;;2.88;;
11677;SDS011;5895;41.950;24.372;2023-08-31T08:09:11;5.10;;;3.00;;
11677;SDS011;5895;41.950;24.372;2023-08-31T08:11:39;4.95;;;3.03;;
11677;SDS011;5895;41.950;24.372;2023-08-31T08:14:08;5.60;;;3.05;;
11677;SDS011;5895;41.950;24.372;2023-08-31T08:16:36;3.95;;;2.78;;
11677;SDS011;5895;41.950;24.372;2023-08-31T08:19:03;6.20;;;3.33;;
11677;SDS011;5895;41.950;24.372;2023-08-31T08:21:32;6.28;;;3.20;;
11677;SDS011;5895;41.950;24.372;2023-08-31T08:23:59;4.35;;;3.00;;
11677;SDS011;5895;41.950;24.372;2023-08-31T08:26:26;5.53;;;3.28;;
11677;SDS011;5895;41.950;24.372;2023-08-31T08:28:54;5.45;;;2.97;;
11677;SDS011;5895;41.950;24.372;2023-08-31T08:31:23;4.53;;;2.97;;
11677;SDS011;5895;41.950;24.372;2023-08-31T08:33:50;4.10;;;3.00;;
11677;SDS011;5895;41.950;24.372;2023-08-31T08:36:17;6.90;;;3.08;;
11677;SDS011;5895;41.950;24.372;2023-08-31T08:38:45;6.60;;;3.15;;
11677;SDS011;5895;41.950;24.372;2023-08-31T08:41:12;5.95;;;3.47;;
11677;SDS011;5895;41.950;24.372;2023-08-31T08:43:44;3.78;;;2.80;;
11677;SDS011;5895;41.950;24.372;2023-08-31T08:46:14;3.80;;;2.83;;
11677;SDS011;5895;41.950;24.372;2023-08-31T08:48:43;8.38;;;3.20;;
11677;SDS011;5895;41.950;24.372;2023-08-31T08:51:11;4.40;;;2.80;;
11677;SDS011;5895;41.950;24.372;2023-08-31T08:53:40;3.70;;;3.13;;
11677;SDS011;5895;41.950;24.372;2023-08-31T08:56:09;4.60;;;2.88;;
11677;SDS011;5895;41.950;24.372;2023-08-31T08:58:36;5.32;;;3.03;;
11677;SDS011;5895;41.950;24.372;2023-08-31T09:01:04;5.05;;;2.85;;
11677;SDS011;5895;41.950;24.372;2023-08-31T09:03:34;5.68;;;3.53;;
11677;SDS011;5895;41.950;24.372;2023-08-31T09:06:03;5.85;;;3.88;;
11677;SDS011;5895;41.950;24.372;2023-08-31T09:08:33;5.05;;;3.28;;
11677;SDS011;5895;41.950;24.372;2023-08-31T09:11:02;5.30;;;3.30;;
11677;SDS011;5895;41.950;24.372;2023-08-31T09:13:30;5.30;;;3.30;;
11677;SDS011;5895;41.950;24.372;2023-08-31T09:15:57;3.33;;;3.00;;
11677;SDS011;5895;41.950;24.372;2023-08-31T09:18:25;3.45;;;2.25;;
11677;SDS011;5895;41.950;24.372;2023-08-31T09:20:53;5.45;;;2.72;;
11677;SDS011;5895;41.950;24.372;2023-08-31T09:23:23;4.93;;;3.10;;
11677;SDS011;5895;41.950;24.372;2023-08-31T09:25:52;5.00;;;2.65;;
11677;SDS011;5895;41.950;24.372;2023-08-31T09:28:20;3.95;;;2.90;;
11677;SDS011;5895;41.950;24.372;2023-08-31T09:30:49;4.60;;;3.13;;
11677;SDS011;5895;41.950;24.372;2023-08-31T09:33:18;5.13;;;2.85;;
11677;SDS011;5895;41.950;24.372;2023-08-31T09:35:50;4.00;;;2.53;;
11677;SDS011;5895;41.950;24.372;2023-08-31T09:38:19;3.65;;;2.70;;
11677;SDS011;5895;41.950;24.372;2023-08-31T09:40:48;2.55;;;2.33;;
11677;SDS011;5895;41.950;24.372;2023-08-31T09:43:18;5.80;;;2.85;;
11677;SDS011;5895;41.950;24.372;2023-08-31T09:45:47;3.65;;;2.50;;
11677;SDS011;5895;41.950;24.372;2023-08-31T09:48:15;4.72;;;2.60;;
11677;SDS011;5895;41.950;24.372;2023-08-31T09:50:43;6.15;;;2.72;;
11677;SDS011;5895;41.950;24.372;2023-08-31T09:53:12;11.23;;;2.80;;
11677;SDS011;5895;41.950;24.372;2023-08-31T09:55:43;6.43;;;2.63;;
11677;SDS011;5895;41.950;24.372;2023-08-31T09:58:12;3.95;;;2.60;;
11677;SDS011;5895;41.950;24.372;2023-08-31T10:00:42;5.32;;;2.40;;
11677;SDS011;5895;41.950;24.372;2023-08-31T10:03:10;4.68;;;2.90;;
11677;SDS011;5895;41.950;24.372;2023-08-31T10:05:40;4.18;;;2.58;;
11677;SDS011;5895;41.950;24.372;2023-08-31T10:08:09;3.20;;;2.60;;
11677;SDS011;5895;41.950;24.372;2023-08-31T10:10:37;4.00;;;2.88;;
11677;SDS011;5895;41.950;24.372;2023-08-31T10:13:06;5.15;;;2.67;;
11677;SDS011;5895;41.950;24.372;2023-08-31T10:15:35;5.25;;;2.63;;
11677;SDS011;5895;41.950;24.372;2023-08-31T10:18:03;4.65;;;2.75;;
11677;SDS011;5895;41.950;24.372;2023-08-31T10:20:32;7.40;;;2.72;;
11677;SDS011;5895;41.950;24.372;2023-08-31T10:23:02;4.53;;;2.67;;
11677;SDS011;5895;41.950;24.372;2023-08-31T10:28:28;7.45;;;3.00;;
11677;SDS011;5895;41.950;24.372;2023-08-31T10:31:04;4.07;;;2.67;;
11677;SDS011;5895;41.950;24.372;2023-08-31T10:33:32;4.15;;;2.80;;
11677;SDS011;5895;41.950;24.372;2023-08-31T10:36:00;4.45;;;2.83;;
11677;SDS011;5895;41.950;24.372;2023-08-31T10:38:28;5.25;;;2.90;;
11677;SDS011;5895;41.950;24.372;2023-08-31T10:41:00;3.88;;;2.78;;
11677;SDS011;5895;41.950;24.372;2023-08-31T10:43:42;5.53;;;2.75;;
11677;SDS011;5895;41.950;24.372;2023-08-31T10:46:31;5.47;;;2.63;;
11677;SDS011;5895;41.950;24.372;2023-08-31T10:49:00;3.47;;;2.60;;
11677;SDS011;5895;41.950;24.372;2023-08-31T10:51:40;3.63;;;2.38;;
11677;SDS011;5895;41.950;24.372;2023-08-31T10:54:09;4.78;;;2.70;;
11677;SDS011;5895;41.950;24.372;2023-08-31T10:59:46;3.85;;;2.45;;
11677;SDS011;5895;41.950;24.372;2023-08-31T11:02:33;5.85;;;2.83;;
11677;SDS011;5895;41.950;24.372;2023-08-31T11:05:08;3.70;;;2.63;;
11677;SDS011;5895;41.950;24.372;2023-08-31T11:07:36;3.45;;;2.38;;
11677;SDS011;5895;41.950;24.372;2023-08-31T11:10:12;7.00;;;3.13;;
11677;SDS011;5895;41.950;24.372;2023-08-31T11:12:42;5.45;;;2.70;;
11677;SDS011;5895;41.950;24.372;2023-08-31T11:15:13;9.00;;;2.60;;
11677;SDS011;5895;41.950;24.372;2023-08-31T11:17:43;6.20;;;2.65;;
11677;SDS011;5895;41.950;24.372;2023-08-31T11:20:13;5.00;;;2.75;;
11677;SDS011;5895;41.950;24.372;2023-08-31T11:22:42;7.53;;;2.70;;
11677;SDS011;5895;41.950;24.372;2023-08-31T11:25:11;5.75;;;2.90;;
11677;SDS011;5895;41.950;24.372;2023-08-31T11:27:40;5.30;;;2.70;;
11677;SDS011;5895;41.950;24.372;2023-08-31T11:30:12;4.85;;;2.67;;
11677;SDS011;5895;41.950;24.372;2023-08-31T11:32:45;3.47;;;2.65;;
11677;SDS011;5895;41.950;24.372;2023-08-31T11:35:14;4.65;;;2.92;;
11677;SDS011;5895;41.950;24.372;2023-08-31T11:37:41;5.43;;;2.80;;
11677;SDS011;5895;41.950;24.372;2023-08-31T11:40:10;5.32;;;2.80;;
11677;SDS011;5895;41.950;24.372;2023-08-31T11:42:38;3.55;;;2.58;;
11677;SDS011;5895;41.950;24.372;2023-08-31T11:45:06;5.55;;;2.83;;
11677;SDS011;5895;41.950;24.372;2023-08-31T11:47:35;4.05;;;2.70;;
11677;SDS011;5895;41.950;24.372;2023-08-31T11:50:06;5.03;;;2.88;;
11677;SDS011;5895;41.950;24.372;2023-08-31T11:52:35;3.65;;;2.30;;
11677;SDS011;5895;41.950;24.372;2023-08-31T11:55:03;5.80;;;2.63;;
11677;SDS011;5895;41.950;24.372;2023-08-31T11:57:36;7.18;;;2.83;;
11677;SDS011;5895;41.950;24.372;2023-08-31T12:00:04;5.85;;;2.55;;
11677;SDS011;5895;41.950;24.372;2023-08-31T12:02:34;6.25;;;3.13;;
11677;SDS011;5895;41.950;24.372;2023-08-31T12:05:01;11.07;;;3.10;;
11677;SDS011;5895;41.950;24.372;2023-08-31T12:07:32;5.38;;;2.80;;
11677;SDS011;5895;41.950;24.372;2023-08-31T12:10:06;3.35;;;2.50;;
11677;SDS011;5895;41.950;24.372;2023-08-31T12:12:34;4.13;;;2.88;;
11677;SDS011;5895;41.950;24.372;2023-08-31T12:15:02;4.57;;;3.08;;
11677;SDS011;5895;41.950;24.372;2023-08-31T12:17:32;5.60;;;2.63;;
11677;SDS011;5895;41.950;24.372;2023-08-31T12:20:04;4.55;;;2.63;;
11677;SDS011;5895;41.950;24.372;2023-08-31T12:22:34;4.38;;;2.90;;
11677;SDS011;5895;41.950;24.372;2023-08-31T12:25:01;4.18;;;2.67;;
11677;SDS011;5895;41.950;24.372;2023-08-31T12:27:29;4.93;;;2.80;;
11677;SDS011;5895;41.950;24.372;2023-08-31T12:29:56;5.75;;;2.90;;
11677;SDS011;5895;41.950;24.372;2023-08-31T12:32:24;13.45;;;6.78;;
11677;SDS011;5895;41.950;24.372;2023-08-31T12:34:51;11.32;;;6.63;;
11677;SDS011;5895;41.950;24.372;2023-08-31T12:37:18;8.68;;;5.65;;
11677;SDS011;5895;41.950;24.372;2023-08-31T12:39:47;4.43;;;3.17;;
11677;SDS011;5895;41.950;24.372;2023-08-31T12:42:14;10.70;;;3.45;;
11677;SDS011;5895;41.950;24.372;2023-08-31T12:44:42;9.40;;;3.17;;
11677;SDS011;5895;41.950;24.372;2023-08-31T12:47:09;6.10;;;3.15;;
11677;SDS011;5895;41.950;24.372;2023-08-31T12:49:36;5.25;;;3.08;;
11677;SDS011;5895;41.950;24.372;2023-08-31T12:52:04;3.20;;;2.60;;
11677;SDS011;5895;41.950;24.372;2023-08-31T12:54:32;7.43;;;2.53;;
11677;SDS011;5895;41.950;24.372;2023-08-31T12:57:00;5.28;;;2.83;;
11677;SDS011;5895;41.950;24.372;2023-08-31T12:59:28;4.82;;;2.80;;
11677;SDS011;5895;41.950;24.372;2023-08-31T13:01:55;5.80;;;2.92;;
11677;SDS011;5895;41.950;24.372;2023-08-31T13:04:22;5.10;;;2.70;;
11677;SDS011;5895;41.950;24.372;2023-08-31T13:06:50;7.80;;;2.55;;
11677;SDS011;5895;41.950;24.372;2023-08-31T13:09:17;5.57;;;3.13;;
11677;SDS011;5895;41.950;24.372;2023-08-31T13:11:45;11.95;;;3.78;;
11677;SDS011;5895;41.950;24.372;2023-08-31T13:14:13;11.00;;;3.00;;
11677;SDS011;5895;41.950;24.372;2023-08-31T13:16:40;4.57;;;2.97;;
11677;SDS011;5895;41.950;24.372;2023-08-31T13:19:08;4.90;;;3.17;;
11677;SDS011;5895;41.950;24.372;2023-08-31T13:21:35;5.47;;;3.13;;
11677;SDS011;5895;41.950;24.372;2023-08-31T13:24:03;4.18;;;2.70;;
11677;SDS011;5895;41.950;24.372;2023-08-31T13:26:30;8.57;;;3.10;;
11677;SDS011;5895;41.950;24.372;2023-08-31T13:28:58;9.90;;;3.20;;
11677;SDS011;5895;41.950;24.372;2023-08-31T13:31:26;4.20;;;2.83;;
11677;SDS011;5895;41.950;24.372;2023-08-31T13:33:54;5.90;;;3.35;;
11677;SDS011;5895;41.950;24.372;2023-08-31T13:36:22;4.55;;;3.10;;
11677;SDS011;5895;41.950;24.372;2023-08-31T13:38:49;5.30;;;2.92;;
11677;SDS011;5895;41.950;24.372;2023-08-31T13:41:16;4.00;;;2.80;;
11677;SDS011;5895;41.950;24.372;2023-08-31T13:43:44;5.55;;;3.13;;
11677;SDS011;5895;41.950;24.372;2023-08-31T13:46:11;6.40;;;3.70;;
11677;SDS011;5895;41.950;24.372;2023-08-31T13:48:40;4.82;;;3.30;;
11677;SDS011;5895;41.950;24.372;2023-08-31T13:51:07;6.20;;;3.22;;
11677;SDS011;5895;41.950;24.372;2023-08-31T13:53:34;4.43;;;3.20;;
11677;SDS011;5895;41.950;24.372;2023-08-31T13:56:01;4.43;;;3.30;;
11677;SDS011;5895;41.950;24.372;2023-08-31T13:58:29;5.00;;;3.25;;
11677;SDS011;5895;41.950;24.372;2023-08-31T14:00:56;4.63;;;2.97;;
11677;SDS011;5895;41.950;24.372;2023-08-31T14:03:24;4.22;;;3.38;;
11677;SDS011;5895;41.950;24.372;2023-08-31T14:05:53;5.07;;;2.92;;
11677;SDS011;5895;41.950;24.372;2023-08-31T14:08:21;4.68;;;3.30;;
11677;SDS011;5895;41.950;24.372;2023-08-31T14:10:48;4.68;;;2.75;;
11677;SDS011;5895;41.950;24.372;2023-08-31T14:13:17;4.05;;;3.00;;
11677;SDS011;5895;41.950;24.372;2023-08-31T14:15:45;6.13;;;3.13;;
11677;SDS011;5895;41.950;24.372;2023-08-31T14:18:12;13.38;;;3.35;;
11677;SDS011;5895;41.950;24.372;2023-08-31T14:20:40;7.10;;;3.40;;
11677;SDS011;5895;41.950;24.372;2023-08-31T14:23:09;5.35;;;3.00;;
11677;SDS011;5895;41.950;24.372;2023-08-31T14:25:36;4.55;;;3.08;;
11677;SDS011;5895;41.950;24.372;2023-08-31T14:28:04;6.43;;;3.65;;
11677;SDS011;5895;41.950;24.372;2023-08-31T14:30:32;4.07;;;3.03;;
11677;SDS011;5895;41.950;24.372;2023-08-31T14:33:01;5.18;;;3.47;;
11677;SDS011;5895;41.950;24.372;2023-08-31T14:35:29;16.83;;;10.70;;
11677;SDS011;5895;41.950;24.372;2023-08-31T14:37:56;19.33;;;10.15;;
11677;SDS011;5895;41.950;24.372;2023-08-31T14:40:25;14.25;;;5.15;;
11677;SDS011;5895;41.950;24.372;2023-08-31T14:42:53;4.97;;;3.80;;
11677;SDS011;5895;41.950;24.372;2023-08-31T14:45:20;6.60;;;3.78;;
11677;SDS011;5895;41.950;24.372;2023-08-31T14:47:48;4.35;;;3.20;;
11677;SDS011;5895;41.950;24.372;2023-08-31T14:50:15;4.78;;;3.72;;
11677;SDS011;5895;41.950;24.372;2023-08-31T14:52:42;8.82;;;3.55;;
11677;SDS011;5895;41.950;24.372;2023-08-31T14:55:10;3.67;;;3.05;;
11677;SDS011;5895;41.950;24.372;2023-08-31T14:57:38;6.20;;;3.70;;
11677;SDS011;5895;41.950;24.372;2023-08-31T15:00:07;7.85;;;3.88;;
11677;SDS011;5895;41.950;24.372;2023-08-31T15:02:35;9.00;;;3.88;;
11677;SDS011;5895;41.950;24.372;2023-08-31T15:05:03;4.43;;;3.47;;